Pagina principale
METAR-TAF:

METAR-TAF

Aeroporti :

Bolzano, Italia

latitudine: 46-28N, longitudine: 011-20E, altezza: 262 m

Osservazione

Il bollettino è stato emesso 34 minuti fa, alle 15:50 UTC
Vento 4 kt da sud, variando fra sud-est e sud/sud-ovest
Temperature 30°C
Umidità 25%
Pressione 1011 hPa
Visibilità 10 km o più
nessuna nube inferiore a 1500 m e nessun cumulonembo

METAR: LIPB 131550Z 17004KT 130V210 CAVOK 30/08 Q1011

Ora: 18:24 (16:24 UTC)

Previsione

Il bollettino è stato emesso 5 ore e 24 minuti fa, alle 11:00 UTC
Previsione valida dal 13 alle 12 UTC al 14 alle 12 UTC
Vento 5 kt da direzioni variabili
Visibilità 10 km o più
Poco nuvoloso ad un'altezza di 5000 ft
Temporaneamente
dal 13 alle 12 UTC al 13 alle 18 UTC
Vento 10 kt da sud/sud-ovest

TAF: LIPB 131100Z 1312/1412 VRB05KT 9999 FEW050 TEMPO 1312/1318 20010KT

Osservazioni e previsioni meteorologiche di più di 4000 aeroporti (messaggi METAR e TAF).

Le stazioni disponibili sono rappresentate dai dischi gialli e rossi sulla carta.

Puntare il mouse per vedere il nome della stazione.

Clicca sopra per visualizzare le osservazioni e previsioni meteorologiche.

Per cambiare la mappa : fare clic sui pulsanti verdi con una croce nera per ingrandire, il pulsante verde con un trattino per diminuire, o sulla freccia verde per le mappe adiacenti.


METAR-TAF: